sensor_id;sensor_type;location;lat;lon;timestamp;pressure;altitude;pressure_sealevel;temperature;humidity
5053;BME280;2545;50.892;5.740;2022-12-24T00:00:22;56412.13;;;-142.21;100.00
5053;BME280;2545;50.892;5.740;2022-12-24T00:02:49;56408.19;;;-142.21;100.00
5053;BME280;2545;50.892;5.740;2022-12-24T00:05:14;56410.16;;;-142.21;100.00
5053;BME280;2545;50.892;5.740;2022-12-24T00:07:40;56392.50;;;-142.21;100.00
5053;BME280;2545;50.892;5.740;2022-12-24T00:10:05;56394.47;;;-142.21;100.00
5053;BME280;2545;50.892;5.740;2022-12-24T00:12:31;56402.31;;;-142.21;100.00
5053;BME280;2545;50.892;5.740;2022-12-24T00:14:56;56359.16;;;-142.21;100.00
5053;BME280;2545;50.892;5.740;2022-12-24T00:17:22;56449.38;;;-142.21;100.00
5053;BME280;2545;50.892;5.740;2022-12-24T00:19:47;56368.97;;;-142.21;100.00
5053;BME280;2545;50.892;5.740;2022-12-24T00:22:12;56388.59;;;-142.21;100.00
5053;BME280;2545;50.892;5.740;2022-12-24T00:24:38;56390.53;;;-142.21;100.00
5053;BME280;2545;50.892;5.740;2022-12-24T00:27:03;56408.19;;;-142.21;100.00
5053;BME280;2545;50.892;5.740;2022-12-24T00:29:30;56402.31;;;-142.21;100.00
5053;BME280;2545;50.892;5.740;2022-12-24T00:31:55;56404.28;;;-142.21;100.00
5053;BME280;2545;50.892;5.740;2022-12-24T00:34:22;56406.22;;;-142.21;100.00
5053;BME280;2545;50.892;5.740;2022-12-24T00:36:47;56414.06;;;-142.21;100.00
5053;BME280;2545;50.892;5.740;2022-12-24T00:39:13;56416.03;;;-142.21;100.00
5053;BME280;2545;50.892;5.740;2022-12-24T00:41:38;56384.66;;;-142.21;100.00
5053;BME280;2545;50.892;5.740;2022-12-24T00:44:05;56408.19;;;-142.21;100.00
5053;BME280;2545;50.892;5.740;2022-12-24T00:46:32;56416.03;;;-142.21;100.00
5053;BME280;2545;50.892;5.740;2022-12-24T00:48:58;56402.31;;;-142.21;100.00
5053;BME280;2545;50.892;5.740;2022-12-24T00:51:23;56388.59;;;-142.21;100.00
5053;BME280;2545;50.892;5.740;2022-12-24T00:53:49;56418.00;;;-142.21;100.00
5053;BME280;2545;50.892;5.740;2022-12-24T00:56:15;56421.91;;;-142.21;100.00
5053;BME280;2545;50.892;5.740;2022-12-24T00:58:40;56378.78;;;-142.21;100.00
5053;BME280;2545;50.892;5.740;2022-12-24T01:01:06;56429.75;;;-142.21;100.00
5053;BME280;2545;50.892;5.740;2022-12-24T01:03:31;56412.13;;;-142.21;100.00
5053;BME280;2545;50.892;5.740;2022-12-24T01:06:07;56388.59;;;-142.21;100.00
5053;BME280;2545;50.892;5.740;2022-12-24T01:08:33;56408.19;;;-142.21;100.00
5053;BME280;2545;50.892;5.740;2022-12-24T01:11:00;56425.84;;;-142.21;100.00
5053;BME280;2545;50.892;5.740;2022-12-24T01:13:25;56390.53;;;-142.21;100.00
5053;BME280;2545;50.892;5.740;2022-12-24T01:15:51;56390.53;;;-142.21;100.00
5053;BME280;2545;50.892;5.740;2022-12-24T01:18:17;56423.88;;;-142.21;100.00
5053;BME280;2545;50.892;5.740;2022-12-24T01:20:42;56433.69;;;-142.21;100.00
5053;BME280;2545;50.892;5.740;2022-12-24T01:23:07;56427.81;;;-142.21;100.00
5053;BME280;2545;50.892;5.740;2022-12-24T01:25:33;56402.31;;;-142.21;100.00
5053;BME280;2545;50.892;5.740;2022-12-24T01:27:58;56359.16;;;-142.21;100.00
5053;BME280;2545;50.892;5.740;2022-12-24T01:30:23;56421.91;;;-142.21;100.00
5053;BME280;2545;50.892;5.740;2022-12-24T01:32:49;56386.63;;;-142.21;100.00
5053;BME280;2545;50.892;5.740;2022-12-24T01:35:14;56419.97;;;-142.21;100.00
5053;BME280;2545;50.892;5.740;2022-12-24T01:37:41;56416.03;;;-142.21;100.00
5053;BME280;2545;50.892;5.740;2022-12-24T01:40:09;56402.31;;;-142.21;100.00
5053;BME280;2545;50.892;5.740;2022-12-24T01:43:14;56386.63;;;-142.21;100.00
5053;BME280;2545;50.892;5.740;2022-12-24T01:46:24;56410.16;;;-142.21;100.00
5053;BME280;2545;50.892;5.740;2022-12-24T01:49:03;56388.59;;;-142.21;100.00
5053;BME280;2545;50.892;5.740;2022-12-24T01:52:00;56410.16;;;-142.21;100.00
5053;BME280;2545;50.892;5.740;2022-12-24T01:54:41;56378.78;;;-142.21;100.00
5053;BME280;2545;50.892;5.740;2022-12-24T01:57:24;56412.13;;;-142.21;100.00
5053;BME280;2545;50.892;5.740;2022-12-24T01:59:54;56357.22;;;-142.21;100.00
5053;BME280;2545;50.892;5.740;2022-12-24T02:02:22;56359.16;;;-142.21;100.00
5053;BME280;2545;50.892;5.740;2022-12-24T02:07:28;56418.00;;;-142.21;100.00
5053;BME280;2545;50.892;5.740;2022-12-24T02:09:56;56406.22;;;-142.21;100.00
5053;BME280;2545;50.892;5.740;2022-12-24T02:12:22;56445.44;;;-142.21;100.00
5053;BME280;2545;50.892;5.740;2022-12-24T02:14:48;56404.28;;;-142.21;100.00
5053;BME280;2545;50.892;5.740;2022-12-24T02:17:41;56425.84;;;-142.21;100.00
5053;BME280;2545;50.892;5.740;2022-12-24T02:23:30;56378.78;;;-142.21;100.00
5053;BME280;2545;50.892;5.740;2022-12-24T02:26:06;56400.34;;;-142.21;100.00
5053;BME280;2545;50.892;5.740;2022-12-24T02:31:35;56414.06;;;-142.21;100.00
5053;BME280;2545;50.892;5.740;2022-12-24T02:34:03;56451.34;;;-142.21;100.00
5053;BME280;2545;50.892;5.740;2022-12-24T02:37:02;56390.53;;;-142.21;100.00
5053;BME280;2545;50.892;5.740;2022-12-24T02:39:42;56423.88;;;-142.21;100.00
5053;BME280;2545;50.892;5.740;2022-12-24T02:42:10;56382.69;;;-142.21;100.00
5053;BME280;2545;50.892;5.740;2022-12-24T02:45:04;56410.16;;;-142.21;100.00
5053;BME280;2545;50.892;5.740;2022-12-24T02:47:32;56410.16;;;-142.21;100.00
5053;BME280;2545;50.892;5.740;2022-12-24T02:50:00;56416.03;;;-142.21;100.00
5053;BME280;2545;50.892;5.740;2022-12-24T02:54:56;56408.19;;;-142.21;100.00
5053;BME280;2545;50.892;5.740;2022-12-24T03:00:41;56404.28;;;-142.21;100.00
5053;BME280;2545;50.892;5.740;2022-12-24T03:03:36;56418.00;;;-142.21;100.00
5053;BME280;2545;50.892;5.740;2022-12-24T03:08:59;56429.75;;;-142.21;100.00
5053;BME280;2545;50.892;5.740;2022-12-24T03:11:26;56425.84;;;-142.21;100.00
5053;BME280;2545;50.892;5.740;2022-12-24T03:13:53;56400.34;;;-142.21;100.00
5053;BME280;2545;50.892;5.740;2022-12-24T03:16:23;56435.66;;;-142.21;100.00
5053;BME280;2545;50.892;5.740;2022-12-24T03:18:51;56410.16;;;-142.21;100.00
5053;BME280;2545;50.892;5.740;2022-12-24T03:21:23;56455.25;;;-142.21;100.00
5053;BME280;2545;50.892;5.740;2022-12-24T03:23:49;56425.84;;;-142.21;100.00
5053;BME280;2545;50.892;5.740;2022-12-24T03:26:16;56406.22;;;-142.21;100.00
5053;BME280;2545;50.892;5.740;2022-12-24T03:28:42;56408.19;;;-142.21;100.00
5053;BME280;2545;50.892;5.740;2022-12-24T03:31:09;56427.81;;;-142.21;100.00
5053;BME280;2545;50.892;5.740;2022-12-24T03:33:35;56425.84;;;-142.21;100.00
5053;BME280;2545;50.892;5.740;2022-12-24T03:36:01;56425.84;;;-142.21;100.00
5053;BME280;2545;50.892;5.740;2022-12-24T03:38:26;56431.72;;;-142.21;100.00
5053;BME280;2545;50.892;5.740;2022-12-24T03:40:52;56394.47;;;-142.21;100.00
5053;BME280;2545;50.892;5.740;2022-12-24T03:43:17;56459.19;;;-142.21;100.00
5053;BME280;2545;50.892;5.740;2022-12-24T03:45:42;56449.38;;;-142.21;100.00
5053;BME280;2545;50.892;5.740;2022-12-24T03:48:08;56392.50;;;-142.21;100.00
5053;BME280;2545;50.892;5.740;2022-12-24T03:50:33;56445.44;;;-142.21;100.00
5053;BME280;2545;50.892;5.740;2022-12-24T03:52:58;56431.72;;;-142.21;100.00
5053;BME280;2545;50.892;5.740;2022-12-24T03:55:24;56445.44;;;-142.21;100.00
5053;BME280;2545;50.892;5.740;2022-12-24T03:57:49;56467.03;;;-142.21;100.00
5053;BME280;2545;50.892;5.740;2022-12-24T04:00:15;56404.28;;;-142.21;100.00
5053;BME280;2545;50.892;5.740;2022-12-24T04:02:40;56400.34;;;-142.21;100.00
5053;BME280;2545;50.892;5.740;2022-12-24T04:05:07;56400.34;;;-142.21;100.00
5053;BME280;2545;50.892;5.740;2022-12-24T04:07:33;56427.81;;;-142.21;100.00
5053;BME280;2545;50.892;5.740;2022-12-24T04:09:58;56437.59;;;-142.21;100.00
5053;BME280;2545;50.892;5.740;2022-12-24T04:12:24;56437.59;;;-142.21;100.00
5053;BME280;2545;50.892;5.740;2022-12-24T04:14:49;56414.06;;;-142.21;100.00
5053;BME280;2545;50.892;5.740;2022-12-24T04:17:15;56425.84;;;-142.21;100.00
5053;BME280;2545;50.892;5.740;2022-12-24T04:19:40;56400.34;;;-142.21;100.00
5053;BME280;2545;50.892;5.740;2022-12-24T04:22:06;56429.75;;;-142.21;100.00
5053;BME280;2545;50.892;5.740;2022-12-24T04:24:31;56453.28;;;-142.21;100.00
5053;BME280;2545;50.892;5.740;2022-12-24T04:26:56;56421.91;;;-142.21;100.00
5053;BME280;2545;50.892;5.740;2022-12-24T04:29:21;56421.91;;;-142.21;100.00
5053;BME280;2545;50.892;5.740;2022-12-24T04:31:47;56388.59;;;-142.21;100.00
5053;BME280;2545;50.892;5.740;2022-12-24T04:34:12;56431.72;;;-142.21;100.00
5053;BME280;2545;50.892;5.740;2022-12-24T04:36:37;56384.66;;;-142.21;100.00
5053;BME280;2545;50.892;5.740;2022-12-24T04:39:03;56429.75;;;-142.21;100.00
5053;BME280;2545;50.892;5.740;2022-12-24T04:41:28;56408.19;;;-142.21;100.00
5053;BME280;2545;50.892;5.740;2022-12-24T04:43:54;56465.06;;;-142.21;100.00
5053;BME280;2545;50.892;5.740;2022-12-24T04:46:22;56414.06;;;-142.21;100.00
5053;BME280;2545;50.892;5.740;2022-12-24T04:48:50;56418.00;;;-142.21;100.00
5053;BME280;2545;50.892;5.740;2022-12-24T04:51:16;56439.56;;;-142.21;100.00
5053;BME280;2545;50.892;5.740;2022-12-24T04:53:42;56386.63;;;-142.21;100.00
5053;BME280;2545;50.892;5.740;2022-12-24T04:56:11;56431.72;;;-142.21;100.00
5053;BME280;2545;50.892;5.740;2022-12-24T04:58:37;56445.44;;;-142.21;100.00
5053;BME280;2545;50.892;5.740;2022-12-24T05:01:06;56410.16;;;-142.21;100.00
5053;BME280;2545;50.892;5.740;2022-12-24T05:03:32;56435.66;;;-142.21;100.00
5053;BME280;2545;50.892;5.740;2022-12-24T05:06:06;56394.47;;;-142.21;100.00
5053;BME280;2545;50.892;5.740;2022-12-24T05:08:32;56439.56;;;-142.21;100.00
5053;BME280;2545;50.892;5.740;2022-12-24T05:10:59;56425.84;;;-142.21;100.00
5053;BME280;2545;50.892;5.740;2022-12-24T05:13:25;56459.19;;;-142.21;100.00
5053;BME280;2545;50.892;5.740;2022-12-24T05:15:51;56427.81;;;-142.21;100.00
5053;BME280;2545;50.892;5.740;2022-12-24T05:18:17;56472.91;;;-142.21;100.00
5053;BME280;2545;50.892;5.740;2022-12-24T05:20:42;56421.91;;;-142.21;100.00
5053;BME280;2545;50.892;5.740;2022-12-24T05:23:14;56382.69;;;-142.21;100.00
5053;BME280;2545;50.892;5.740;2022-12-24T05:25:58;56412.13;;;-142.21;100.00
5053;BME280;2545;50.892;5.740;2022-12-24T05:28:41;56429.75;;;-142.21;100.00
5053;BME280;2545;50.892;5.740;2022-12-24T05:31:07;56427.81;;;-142.21;100.00
5053;BME280;2545;50.892;5.740;2022-12-24T05:33:32;56404.28;;;-142.21;100.00
5053;BME280;2545;50.892;5.740;2022-12-24T05:35:58;56414.06;;;-142.21;100.00
5053;BME280;2545;50.892;5.740;2022-12-24T05:38:23;56410.16;;;-142.21;100.00
5053;BME280;2545;50.892;5.740;2022-12-24T05:40:48;56390.53;;;-142.21;100.00
5053;BME280;2545;50.892;5.740;2022-12-24T05:43:14;56402.31;;;-142.21;100.00
5053;BME280;2545;50.892;5.740;2022-12-24T05:45:39;56398.38;;;-142.21;100.00
5053;BME280;2545;50.892;5.740;2022-12-24T05:48:04;56435.66;;;-142.21;100.00
5053;BME280;2545;50.892;5.740;2022-12-24T05:50:32;56423.88;;;-142.21;100.00
5053;BME280;2545;50.892;5.740;2022-12-24T05:52:57;56433.69;;;-142.21;100.00
5053;BME280;2545;50.892;5.740;2022-12-24T05:55:23;56382.69;;;-142.21;100.00
5053;BME280;2545;50.892;5.740;2022-12-24T05:57:48;56463.09;;;-142.21;100.00
5053;BME280;2545;50.892;5.740;2022-12-24T06:00:13;56390.53;;;-142.21;100.00
5053;BME280;2545;50.892;5.740;2022-12-24T06:02:39;56427.81;;;-142.21;100.00
5053;BME280;2545;50.892;5.740;2022-12-24T06:05:04;56433.69;;;-142.21;100.00
5053;BME280;2545;50.892;5.740;2022-12-24T06:07:30;56421.91;;;-142.21;100.00
5053;BME280;2545;50.892;5.740;2022-12-24T06:09:55;56423.88;;;-142.21;100.00
5053;BME280;2545;50.892;5.740;2022-12-24T06:12:20;56441.53;;;-142.21;100.00
5053;BME280;2545;50.892;5.740;2022-12-24T06:14:46;56410.16;;;-142.21;100.00
5053;BME280;2545;50.892;5.740;2022-12-24T06:17:11;56416.03;;;-142.21;100.00
5053;BME280;2545;50.892;5.740;2022-12-24T06:19:36;56423.88;;;-142.21;100.00
5053;BME280;2545;50.892;5.740;2022-12-24T06:22:02;56370.94;;;-142.21;100.00
5053;BME280;2545;50.892;5.740;2022-12-24T06:24:27;56433.69;;;-142.21;100.00
5053;BME280;2545;50.892;5.740;2022-12-24T06:26:52;56433.69;;;-142.21;100.00
5053;BME280;2545;50.892;5.740;2022-12-24T06:29:17;56384.66;;;-142.21;100.00
5053;BME280;2545;50.892;5.740;2022-12-24T06:31:43;56431.72;;;-142.21;100.00
5053;BME280;2545;50.892;5.740;2022-12-24T06:34:08;56404.28;;;-142.21;100.00
5053;BME280;2545;50.892;5.740;2022-12-24T06:36:33;56435.66;;;-142.21;100.00
5053;BME280;2545;50.892;5.740;2022-12-24T06:38:59;56443.50;;;-142.21;100.00
5053;BME280;2545;50.892;5.740;2022-12-24T06:41:24;56435.66;;;-142.21;100.00
5053;BME280;2545;50.892;5.740;2022-12-24T06:43:51;56410.16;;;-142.21;100.00
5053;BME280;2545;50.892;5.740;2022-12-24T06:46:17;56394.47;;;-142.21;100.00
5053;BME280;2545;50.892;5.740;2022-12-24T06:48:44;56423.88;;;-142.21;100.00
5053;BME280;2545;50.892;5.740;2022-12-24T06:51:10;56431.72;;;-142.21;100.00
5053;BME280;2545;50.892;5.740;2022-12-24T06:53:36;56421.91;;;-142.21;100.00
5053;BME280;2545;50.892;5.740;2022-12-24T06:56:06;56333.69;;;-142.21;100.00
5053;BME280;2545;50.892;5.740;2022-12-24T06:58:33;56412.13;;;-142.21;100.00
5053;BME280;2545;50.892;5.740;2022-12-24T07:01:05;56423.88;;;-142.21;100.00
5053;BME280;2545;50.892;5.740;2022-12-24T07:03:31;56406.22;;;-142.21;100.00
5053;BME280;2545;50.892;5.740;2022-12-24T07:05:57;56418.00;;;-142.21;100.00
5053;BME280;2545;50.892;5.740;2022-12-24T07:08:23;56408.19;;;-142.21;100.00
5053;BME280;2545;50.892;5.740;2022-12-24T07:10:49;56419.97;;;-142.21;100.00
5053;BME280;2545;50.892;5.740;2022-12-24T07:13:15;56404.28;;;-142.21;100.00
5053;BME280;2545;50.892;5.740;2022-12-24T07:15:40;56408.19;;;-142.21;100.00
5053;BME280;2545;50.892;5.740;2022-12-24T07:18:05;56406.22;;;-142.21;100.00
5053;BME280;2545;50.892;5.740;2022-12-24T07:20:31;56386.63;;;-142.21;100.00
5053;BME280;2545;50.892;5.740;2022-12-24T07:22:56;56449.38;;;-142.21;100.00
5053;BME280;2545;50.892;5.740;2022-12-24T07:25:21;56404.28;;;-142.21;100.00
5053;BME280;2545;50.892;5.740;2022-12-24T07:27:47;56433.69;;;-142.21;100.00
5053;BME280;2545;50.892;5.740;2022-12-24T07:30:12;56412.13;;;-142.21;100.00
5053;BME280;2545;50.892;5.740;2022-12-24T07:32:38;56427.81;;;-142.21;100.00
5053;BME280;2545;50.892;5.740;2022-12-24T07:35:04;56427.81;;;-142.21;100.00
5053;BME280;2545;50.892;5.740;2022-12-24T07:37:30;56400.34;;;-142.21;100.00
5053;BME280;2545;50.892;5.740;2022-12-24T07:39:55;56359.16;;;-142.21;100.00
5053;BME280;2545;50.892;5.740;2022-12-24T07:42:20;56388.59;;;-142.21;100.00
5053;BME280;2545;50.892;5.740;2022-12-24T07:44:46;56433.69;;;-142.21;100.00
5053;BME280;2545;50.892;5.740;2022-12-24T07:47:11;56406.22;;;-142.21;100.00
5053;BME280;2545;50.892;5.740;2022-12-24T07:49:36;56414.06;;;-142.21;100.00
5053;BME280;2545;50.892;5.740;2022-12-24T07:52:02;56441.53;;;-142.21;100.00
5053;BME280;2545;50.892;5.740;2022-12-24T07:54:27;56453.28;;;-142.21;100.00
5053;BME280;2545;50.892;5.740;2022-12-24T07:56:53;56419.97;;;-142.21;100.00
5053;BME280;2545;50.892;5.740;2022-12-24T07:59:19;56421.91;;;-142.21;100.00
5053;BME280;2545;50.892;5.740;2022-12-24T08:01:44;56421.91;;;-142.21;100.00
5053;BME280;2545;50.892;5.740;2022-12-24T08:04:10;56425.84;;;-142.21;100.00
5053;BME280;2545;50.892;5.740;2022-12-24T08:06:35;56396.44;;;-142.21;100.00
5053;BME280;2545;50.892;5.740;2022-12-24T08:09:01;56414.06;;;-142.21;100.00
5053;BME280;2545;50.892;5.740;2022-12-24T08:11:26;56431.72;;;-142.21;100.00
5053;BME280;2545;50.892;5.740;2022-12-24T08:13:51;56398.38;;;-142.21;100.00
5053;BME280;2545;50.892;5.740;2022-12-24T08:16:17;56429.75;;;-142.21;100.00
5053;BME280;2545;50.892;5.740;2022-12-24T08:18:42;56445.44;;;-142.21;100.00
5053;BME280;2545;50.892;5.740;2022-12-24T08:21:08;56392.50;;;-142.21;100.00
5053;BME280;2545;50.892;5.740;2022-12-24T08:23:34;56400.34;;;-142.21;100.00
5053;BME280;2545;50.892;5.740;2022-12-24T08:26:00;56416.03;;;-142.21;100.00
5053;BME280;2545;50.892;5.740;2022-12-24T08:28:25;56419.97;;;-142.21;100.00
5053;BME280;2545;50.892;5.740;2022-12-24T08:30:51;56400.34;;;-142.21;100.00
5053;BME280;2545;50.892;5.740;2022-12-24T08:33:16;56384.66;;;-142.21;100.00
5053;BME280;2545;50.892;5.740;2022-12-24T08:35:53;56412.13;;;-142.21;100.00
5053;BME280;2545;50.892;5.740;2022-12-24T08:38:19;56423.88;;;-142.21;100.00
5053;BME280;2545;50.892;5.740;2022-12-24T08:40:45;56443.50;;;-142.21;100.00
5053;BME280;2545;50.892;5.740;2022-12-24T08:43:17;56419.97;;;-142.21;100.00
5053;BME280;2545;50.892;5.740;2022-12-24T08:45:44;56408.19;;;-142.21;100.00
5053;BME280;2545;50.892;5.740;2022-12-24T08:48:09;56382.69;;;-142.21;100.00
5053;BME280;2545;50.892;5.740;2022-12-24T08:50:37;56402.31;;;-142.21;100.00
5053;BME280;2545;50.892;5.740;2022-12-24T08:53:03;56421.91;;;-142.21;100.00
5053;BME280;2545;50.892;5.740;2022-12-24T08:55:29;56384.66;;;-142.21;100.00
5053;BME280;2545;50.892;5.740;2022-12-24T08:57:54;56419.97;;;-142.21;100.00
5053;BME280;2545;50.892;5.740;2022-12-24T09:00:19;56398.38;;;-142.21;100.00
5053;BME280;2545;50.892;5.740;2022-12-24T09:02:45;56402.31;;;-142.21;100.00
5053;BME280;2545;50.892;5.740;2022-12-24T09:05:11;56374.84;;;-142.21;100.00
5053;BME280;2545;50.892;5.740;2022-12-24T09:07:36;56435.66;;;-142.21;100.00
5053;BME280;2545;50.892;5.740;2022-12-24T09:10:02;56372.91;;;-142.21;100.00
5053;BME280;2545;50.892;5.740;2022-12-24T09:12:28;56406.22;;;-142.21;100.00
5053;BME280;2545;50.892;5.740;2022-12-24T09:14:53;56392.50;;;-142.21;100.00
5053;BME280;2545;50.892;5.740;2022-12-24T09:17:19;56425.84;;;-142.21;100.00
5053;BME280;2545;50.892;5.740;2022-12-24T09:19:45;56402.31;;;-142.21;100.00
5053;BME280;2545;50.892;5.740;2022-12-24T09:22:10;56414.06;;;-142.21;100.00
5053;BME280;2545;50.892;5.740;2022-12-24T09:24:36;56433.69;;;-142.21;100.00
5053;BME280;2545;50.892;5.740;2022-12-24T09:27:01;56408.19;;;-142.21;100.00
5053;BME280;2545;50.892;5.740;2022-12-24T09:29:28;56378.78;;;-142.21;100.00
5053;BME280;2545;50.892;5.740;2022-12-24T09:31:54;56412.13;;;-142.21;100.00
5053;BME280;2545;50.892;5.740;2022-12-24T09:34:20;56433.69;;;-142.21;100.00
5053;BME280;2545;50.892;5.740;2022-12-24T09:36:46;56380.75;;;-142.21;100.00
5053;BME280;2545;50.892;5.740;2022-12-24T09:39:11;56368.97;;;-142.21;100.00
5053;BME280;2545;50.892;5.740;2022-12-24T09:49:48;56380.75;;;-142.21;100.00
5053;BME280;2545;50.892;5.740;2022-12-24T09:52:25;56378.78;;;-142.21;100.00
5053;BME280;2545;50.892;5.740;2022-12-24T09:55:51;56402.31;;;-142.21;100.00
5053;BME280;2545;50.892;5.740;2022-12-24T09:57:52;56414.06;;;-142.21;100.00
5053;BME280;2545;50.892;5.740;2022-12-24T10:00:29;56427.81;;;-142.21;100.00
5053;BME280;2545;50.892;5.740;2022-12-24T10:02:57;56398.38;;;-142.21;100.00
5053;BME280;2545;50.892;5.740;2022-12-24T10:16:04;56388.59;;;-142.21;100.00
5053;BME280;2545;50.892;5.740;2022-12-24T10:24:11;56390.53;;;-142.21;100.00
5053;BME280;2545;50.892;5.740;2022-12-24T10:26:53;56390.53;;;-142.21;100.00
5053;BME280;2545;50.892;5.740;2022-12-24T10:29:26;56400.34;;;-142.21;100.00
5053;BME280;2545;50.892;5.740;2022-12-24T10:32:00;56414.06;;;-142.21;100.00
5053;BME280;2545;50.892;5.740;2022-12-24T10:34:35;56368.97;;;-142.21;100.00
5053;BME280;2545;50.892;5.740;2022-12-24T10:37:02;56368.97;;;-142.21;100.00
5053;BME280;2545;50.892;5.740;2022-12-24T10:39:28;56370.94;;;-142.21;100.00
5053;BME280;2545;50.892;5.740;2022-12-24T10:41:55;56386.63;;;-142.21;100.00
5053;BME280;2545;50.892;5.740;2022-12-24T10:44:27;56410.16;;;-142.21;100.00
5053;BME280;2545;50.892;5.740;2022-12-24T10:46:54;56414.06;;;-142.21;100.00
5053;BME280;2545;50.892;5.740;2022-12-24T10:51:55;56359.16;;;-142.21;100.00
5053;BME280;2545;50.892;5.740;2022-12-24T10:54:27;56396.44;;;-142.21;100.00
5053;BME280;2545;50.892;5.740;2022-12-24T10:57:00;56367.00;;;-142.21;100.00
5053;BME280;2545;50.892;5.740;2022-12-24T10:59:48;56388.59;;;-142.21;100.00
5053;BME280;2545;50.892;5.740;2022-12-24T11:02:35;56412.13;;;-142.21;100.00
5053;BME280;2545;50.892;5.740;2022-12-24T11:05:03;56384.66;;;-142.21;100.00
5053;BME280;2545;50.892;5.740;2022-12-24T11:07:30;56374.84;;;-142.21;100.00
5053;BME280;2545;50.892;5.740;2022-12-24T11:10:06;56335.63;;;-142.21;100.00
5053;BME280;2545;50.892;5.740;2022-12-24T11:12:45;56380.75;;;-142.21;100.00
5053;BME280;2545;50.892;5.740;2022-12-24T11:15:30;56419.97;;;-142.21;100.00
5053;BME280;2545;50.892;5.740;2022-12-24T11:18:02;56392.50;;;-142.21;100.00
5053;BME280;2545;50.892;5.740;2022-12-24T11:20:31;56392.50;;;-142.21;100.00
5053;BME280;2545;50.892;5.740;2022-12-24T11:22:57;56439.56;;;-142.21;100.00
5053;BME280;2545;50.892;5.740;2022-12-24T11:25:30;56376.81;;;-142.21;100.00
5053;BME280;2545;50.892;5.740;2022-12-24T11:28:09;56398.38;;;-142.21;100.00
5053;BME280;2545;50.892;5.740;2022-12-24T11:30:35;56398.38;;;-142.21;100.00
5053;BME280;2545;50.892;5.740;2022-12-24T11:35:27;56390.53;;;-142.21;100.00
5053;BME280;2545;50.892;5.740;2022-12-24T11:40:30;56396.44;;;-142.21;100.00
5053;BME280;2545;50.892;5.740;2022-12-24T11:42:59;56329.75;;;-142.21;100.00
5053;BME280;2545;50.892;5.740;2022-12-24T11:45:30;56370.94;;;-142.21;100.00
5053;BME280;2545;50.892;5.740;2022-12-24T11:47:57;56378.78;;;-142.21;99.50
5053;BME280;2545;50.892;5.740;2022-12-24T11:50:33;56408.19;;;-142.21;98.76
5053;BME280;2545;50.892;5.740;2022-12-24T11:55:41;56396.44;;;-142.21;99.63
5053;BME280;2545;50.892;5.740;2022-12-24T11:58:38;56390.53;;;-142.21;98.64
5053;BME280;2545;50.892;5.740;2022-12-24T12:04:14;56372.91;;;-142.21;97.71
5053;BME280;2545;50.892;5.740;2022-12-24T12:06:56;56412.13;;;-142.21;98.34
5053;BME280;2545;50.892;5.740;2022-12-24T12:09:29;56418.00;;;-142.21;96.06
5053;BME280;2545;50.892;5.740;2022-12-24T12:12:18;56384.66;;;-142.21;93.69
5053;BME280;2545;50.892;5.740;2022-12-24T12:14:49;56439.56;;;-142.21;92.30
5053;BME280;2545;50.892;5.740;2022-12-24T12:20:03;56386.63;;;-142.21;92.94
5053;BME280;2545;50.892;5.740;2022-12-24T12:22:59;56374.84;;;-142.21;92.54
5053;BME280;2545;50.892;5.740;2022-12-24T12:28:37;56372.91;;;-142.21;93.22
5053;BME280;2545;50.892;5.740;2022-12-24T12:33:41;56404.28;;;-142.21;94.53
5053;BME280;2545;50.892;5.740;2022-12-24T12:36:09;56386.63;;;-142.21;94.96
5053;BME280;2545;50.892;5.740;2022-12-24T12:38:36;56368.97;;;-142.21;93.61
5053;BME280;2545;50.892;5.740;2022-12-24T12:43:55;56382.69;;;-142.21;93.93
5053;BME280;2545;50.892;5.740;2022-12-24T12:49:35;56339.56;;;-142.21;92.76
5053;BME280;2545;50.892;5.740;2022-12-24T12:52:29;56386.63;;;-142.21;94.22
5053;BME280;2545;50.892;5.740;2022-12-24T12:55:24;56355.25;;;-142.21;95.50
5053;BME280;2545;50.892;5.740;2022-12-24T12:57:58;56392.50;;;-142.21;94.84
5053;BME280;2545;50.892;5.740;2022-12-24T13:00:24;56355.25;;;-142.21;93.80
5053;BME280;2545;50.892;5.740;2022-12-24T13:03:23;56365.06;;;-142.21;84.70
5053;BME280;2545;50.892;5.740;2022-12-24T13:06:25;56347.41;;;-142.21;80.03
5053;BME280;2545;50.892;5.740;2022-12-24T13:09:00;56382.69;;;-142.21;82.47
5053;BME280;2545;50.892;5.740;2022-12-24T13:17:06;56351.31;;;-142.21;80.38
5053;BME280;2545;50.892;5.740;2022-12-24T13:19:57;56398.38;;;-142.21;83.16
5053;BME280;2545;50.892;5.740;2022-12-24T13:22:25;56396.44;;;-142.21;83.54
5053;BME280;2545;50.892;5.740;2022-12-24T13:24:53;56361.13;;;-142.21;85.40
5053;BME280;2545;50.892;5.740;2022-12-24T13:27:24;56365.06;;;-142.21;85.37
5053;BME280;2545;50.892;5.740;2022-12-24T13:29:57;56349.38;;;-142.21;84.66
5053;BME280;2545;50.892;5.740;2022-12-24T13:34:49;56382.69;;;-142.21;81.65
5053;BME280;2545;50.892;5.740;2022-12-24T13:40:26;56327.78;;;-142.21;74.44
5053;BME280;2545;50.892;5.740;2022-12-24T13:47:57;56347.41;;;-142.21;74.42
5053;BME280;2545;50.892;5.740;2022-12-24T13:53:31;56359.16;;;-142.21;77.27
5053;BME280;2545;50.892;5.740;2022-12-24T13:58:30;56335.63;;;-142.21;82.83
5053;BME280;2545;50.892;5.740;2022-12-24T14:00:59;56343.47;;;-142.21;85.51
5053;BME280;2545;50.892;5.740;2022-12-24T14:03:50;56367.00;;;-142.21;84.00
5053;BME280;2545;50.892;5.740;2022-12-24T14:06:44;56363.09;;;-142.21;85.96
5053;BME280;2545;50.892;5.740;2022-12-24T14:09:19;56345.44;;;-142.21;82.62
5053;BME280;2545;50.892;5.740;2022-12-24T14:14:28;56374.84;;;-142.21;80.89
5053;BME280;2545;50.892;5.740;2022-12-24T14:19:49;56396.44;;;-142.21;84.77
5053;BME280;2545;50.892;5.740;2022-12-24T14:22:26;56378.78;;;-142.21;86.45
5053;BME280;2545;50.892;5.740;2022-12-24T14:24:55;56359.16;;;-142.21;86.39
5053;BME280;2545;50.892;5.740;2022-12-24T14:30:23;56367.00;;;-142.21;87.25
5053;BME280;2545;50.892;5.740;2022-12-24T14:32:48;56357.22;;;-142.21;89.48
5053;BME280;2545;50.892;5.740;2022-12-24T14:35:28;56333.69;;;-142.21;87.02
5053;BME280;2545;50.892;5.740;2022-12-24T14:38:00;56370.94;;;-142.21;89.29
5053;BME280;2545;50.892;5.740;2022-12-24T14:40:29;56370.94;;;-142.21;89.00
5053;BME280;2545;50.892;5.740;2022-12-24T14:43:01;56382.69;;;-142.21;92.09